Time;durP1;ratioP1;P1;durP2;ratioP2;P2;SDS_P1;SDS_P2;PMS_P1;PMS_P2;Temp;Humidity;BMP_temperature;BMP_pressure;BME280_temperature;BME280_humidity;BME280_pressure;Samples;Min_cycle;Max_cycle;Signal;HPM_P1;HPM_P2
2024/01/01 15:21:15;;;;;;;1.88;1.40;;;;;;;5.89;63.81;92143.28;5126812;27;20371;-76
2024/01/01 15:23:41;;;;;;;2.47;1.42;;;;;;;5.75;63.47;92148.25;5126857;28;20038;-76
2024/01/01 15:26:07;;;;;;;2.63;1.48;;;;;;;5.63;60.39;92138.16;5127097;28;20088;-76
2024/01/01 15:28:33;;;;;;;2.40;1.30;;;;;;;5.63;56.43;92156.34;5109011;28;20143;-76
2024/01/01 15:30:59;;;;;;;1.55;1.10;;;;;;;5.60;59.96;92161.28;5127739;28;20063;-76
2024/01/01 15:33:26;;;;;;;1.23;1.13;;;;;;;5.51;62.41;92153.22;5126891;28;20106;-76
2024/01/01 15:35:52;;;;;;;2.05;1.15;;;;;;;5.44;61.99;92150.13;5108510;28;20024;-76
2024/01/01 15:38:18;;;;;;;1.48;1.10;;;;;;;5.40;56.13;92152.50;5107965;28;20044;-76
2024/01/01 15:40:44;;;;;;;1.33;1.20;;;;;;;5.37;55.43;92160.00;5125625;28;20042;-76
2024/01/01 15:43:09;;;;;;;1.35;1.00;;;;;;;5.37;54.38;92163.38;5090367;28;20035;-76
2024/01/01 15:45:37;;;;;;;1.85;1.30;;;;;;;5.34;54.89;92163.16;5126011;28;20122;-77
2024/01/01 15:48:06;;;;;;;1.40;1.30;;;;;;;5.27;55.43;92160.81;5126723;28;20043;-77
2024/01/01 15:50:32;;;;;;;1.30;1.20;;;;;;;5.24;55.66;92160.53;5126033;28;20032;-76
2024/01/01 15:52:58;;;;;;;1.20;1.10;;;;;;;5.19;54.53;92164.69;5107660;28;20111;-76
2024/01/01 15:55:25;;;;;;;1.00;0.90;;;;;;;5.13;54.91;92162.34;5107865;28;20090;-77
2024/01/01 15:57:51;;;;;;;1.88;1.15;;;;;;;5.05;53.31;92155.88;5125549;28;20039;-77
2024/01/01 16:00:17;;;;;;;3.03;1.70;;;;;;;5.07;54.89;92153.03;5125491;28;20030;-77
2024/01/01 16:02:43;;;;;;;4.53;2.35;;;;;;;5.02;55.68;92161.56;5126033;28;20491;-77
2024/01/01 16:05:11;;;;;;;3.97;2.67;;;;;;;4.94;56.89;92162.09;5125111;28;20047;-77
2024/01/01 16:07:36;;;;;;;3.72;1.90;;;;;;;4.91;53.96;92160.00;5106603;28;20031;-77
2024/01/01 16:10:02;;;;;;;2.45;1.60;;;;;;;4.87;53.39;92154.56;5124942;28;20424;-77
2024/01/01 16:12:29;;;;;;;2.20;1.50;;;;;;;4.94;51.20;92154.31;5124890;28;20069;-77
2024/01/01 16:14:55;;;;;;;4.25;1.90;;;;;;;4.89;52.38;92156.94;5125300;28;20502;-76
2024/01/01 16:17:21;;;;;;;4.50;2.63;;;;;;;4.86;52.32;92165.97;5090046;28;20117;-77
2024/01/01 16:19:46;;;;;;;5.45;3.30;;;;;;;4.78;54.41;92169.88;5124867;28;20039;-77
2024/01/01 16:22:13;;;;;;;5.65;2.40;;;;;;;4.71;55.16;92171.16;5125818;28;20066;-76
2024/01/01 16:24:42;;;;;;;2.58;1.63;;;;;;;4.64;54.82;92171.41;5126531;28;20046;-75
2024/01/01 16:27:09;;;;;;;2.83;1.50;;;;;;;4.60;54.99;92175.56;5107155;28;20494;-77
2024/01/01 16:29:35;;;;;;;1.63;1.23;;;;;;;4.55;55.01;92183.31;5124644;28;20057;-76
2024/01/01 16:32:00;;;;;;;2.95;2.00;;;;;;;4.53;54.52;92182.81;5114533;28;20538;-77
2024/01/01 16:34:26;;;;;;;3.28;1.95;;;;;;;4.49;56.46;92184.34;5109653;28;20053;-77
2024/01/01 16:36:55;;;;;;;3.78;1.65;;;;;;;4.43;54.63;92188.72;5073722;28;20028;-77
2024/01/01 16:39:24;;;;;;;1.58;1.30;;;;;;;4.41;55.11;92192.59;5091020;28;20368;-76
2024/01/01 16:41:52;;;;;;;2.22;1.40;;;;;;;4.35;56.02;92199.59;5073463;28;20547;-77
2024/01/01 16:44:19;;;;;;;1.85;1.38;;;;;;;4.26;57.22;92211.50;5091983;28;20031;-77
2024/01/01 16:46:45;;;;;;;1.05;0.95;;;;;;;4.18;57.46;92212.75;5073667;28;20503;-79
2024/01/01 16:49:10;;;;;;;1.85;1.30;;;;;;;4.09;57.58;92216.84;5073452;28;20129;-78
2024/01/01 16:51:37;;;;;;;2.10;1.30;;;;;;;4.03;59.11;92218.66;5092421;28;20410;-78
2024/01/01 16:54:03;;;;;;;1.77;1.30;;;;;;;3.97;60.59;92230.78;5092762;28;20032;-78
2024/01/01 16:56:29;;;;;;;2.28;1.23;;;;;;;3.89;60.81;92236.41;5094194;28;20564;-78
2024/01/01 16:58:54;;;;;;;2.70;1.70;;;;;;;3.90;61.44;92235.41;5093668;28;20036;-78
2024/01/01 17:01:23;;;;;;;4.13;2.03;;;;;;;3.78;63.44;92239.22;5092369;28;20024;-78
2024/01/01 17:03:49;;;;;;;4.00;2.10;;;;;;;3.70;63.81;92237.88;5076098;28;20101;-77
2024/01/01 17:06:21;;;;;;;3.60;2.20;;;;;;;3.62;64.01;92248.69;5090535;28;20048;-77
2024/01/01 17:08:47;;;;;;;3.72;1.70;;;;;;;3.62;72.92;92244.28;5090027;28;20157;-74
2024/01/01 17:11:13;;;;;;;3.40;2.17;;;;;;;3.67;74.32;92248.72;5090203;28;20031;-77
2024/01/01 17:13:41;;;;;;;4.78;3.00;;;;;;;3.67;78.20;92240.94;5090998;28;20052;-77
2024/01/01 17:16:08;;;;;;;2.70;1.60;;;;;;;3.67;80.31;92241.75;5090870;28;20040;-74
2024/01/01 17:18:33;;;;;;;3.40;2.00;;;;;;;3.60;81.62;92237.81;5073428;28;20031;-74
2024/01/01 17:20:59;;;;;;;4.50;2.10;;;;;;;3.55;82.00;92241.91;5069139;28;20044;-75
2024/01/01 17:23:25;;;;;;;4.22;2.30;;;;;;;3.45;81.26;92248.84;5070230;28;20538;-77
2024/01/01 17:25:50;;;;;;;4.22;2.13;;;;;;;3.30;76.38;92259.84;5070729;28;20020;-77
2024/01/01 17:28:16;;;;;;;5.72;3.75;;;;;;;3.17;72.50;92255.06;5071211;28;20253;-77
2024/01/01 17:30:41;;;;;;;6.32;3.28;;;;;;;3.04;73.78;92254.47;5053029;28;20112;-77
2024/01/01 17:33:07;;;;;;;6.13;3.90;;;;;;;2.95;74.35;92266.28;5070685;28;20056;-77
2024/01/01 17:35:36;;;;;;;7.03;3.72;;;;;;;2.87;75.33;92264.13;5068525;28;20055;-77
2024/01/01 17:38:03;;;;;;;4.40;2.58;;;;;;;2.82;75.46;92267.44;5068630;28;20047;-77
2024/01/01 17:40:28;;;;;;;6.15;2.70;;;;;;;2.76;77.50;92262.47;5070085;28;20024;-77
2024/01/01 17:42:54;;;;;;;4.10;2.25;;;;;;;2.75;75.34;92259.09;5068275;28;20051;-77
2024/01/01 17:45:20;;;;;;;4.00;2.53;;;;;;;2.75;74.68;92263.47;5054372;28;20094;-82
2024/01/01 17:47:45;;;;;;;4.32;2.47;;;;;;;2.68;76.13;92272.22;5086620;28;20027;-80
2024/01/01 17:50:11;;;;;;;4.03;2.30;;;;;;;2.63;77.79;92279.91;5082160;28;20040;-81
2024/01/01 17:52:37;;;;;;;5.63;2.10;;;;;;;2.58;77.08;92279.84;5104183;28;20040;-80
2024/01/01 17:55:06;;;;;;;3.65;2.08;;;;;;;2.53;77.31;92286.78;5086564;28;20025;-80
2024/01/01 17:57:32;;;;;;;6.20;2.72;;;;;;;2.48;77.11;92288.28;5097419;28;20032;-79
2024/01/01 17:59:57;;;;;;;10.10;5.60;;;;;;;2.43;76.74;92274.50;5093225;28;20032;-80
2024/01/01 18:02:24;;;;;;;14.32;7.00;;;;;;;2.39;76.58;92278.63;5090765;28;20109;-80
2024/01/01 18:04:49;;;;;;;13.63;5.80;;;;;;;2.35;77.47;92278.31;5093729;28;20031;-79
2024/01/01 18:07:15;;;;;;;9.25;4.55;;;;;;;2.35;77.33;92277.53;5089589;28;20040;-79
2024/01/01 18:09:41;;;;;;;6.95;3.90;;;;;;;2.32;77.73;92288.31;5090273;28;20040;-80
2024/01/01 18:12:06;;;;;;;5.45;3.15;;;;;;;2.29;78.66;92295.53;5081059;28;20047;-79
2024/01/01 18:14:32;;;;;;;4.97;2.95;;;;;;;2.26;79.83;92290.84;5095236;28;20739;-78
2024/01/01 18:16:58;;;;;;;5.05;2.85;;;;;;;2.23;81.32;92306.84;5085525;28;20115;-79
2024/01/01 18:19:23;;;;;;;4.00;2.20;;;;;;;2.15;79.59;92299.50;5092318;28;20044;-78
2024/01/01 18:21:49;;;;;;;4.43;2.40;;;;;;;2.16;80.22;92306.22;5099728;28;20126;-79
2024/01/01 18:24:14;;;;;;;4.53;2.35;;;;;;;2.11;80.44;92316.47;5114222;28;20059;-79
2024/01/01 18:26:40;;;;;;;2.97;1.60;;;;;;;2.10;78.83;92311.56;5066388;28;20040;-80
2024/01/01 18:29:06;;;;;;;2.25;1.30;;;;;;;2.12;77.41;92312.88;5102848;28;20044;-80
2024/01/01 18:31:32;;;;;;;2.45;1.15;;;;;;;2.14;76.55;92310.84;5101947;28;20051;-79
2024/01/01 18:33:58;;;;;;;1.55;1.23;;;;;;;2.17;74.96;92305.19;5108096;27;20020;-81
2024/01/01 18:36:24;;;;;;;2.17;1.40;;;;;;;2.22;74.47;92315.59;5090758;28;20433;-80
2024/01/01 18:38:50;;;;;;;3.67;1.98;;;;;;;2.30;72.61;92309.25;5070317;28;20023;-79
2024/01/01 18:41:16;;;;;;;11.95;4.32;;;;;;;2.45;72.16;92313.81;5096463;28;20028;-78
2024/01/01 18:43:42;;;;;;;10.68;3.88;;;;;;;2.50;73.02;92313.88;5086603;28;20024;-78
2024/01/01 18:46:10;;;;;;;3.47;1.80;;;;;;;2.52;74.39;92319.56;5058952;28;20449;-78
2024/01/01 18:48:36;;;;;;;4.15;1.70;;;;;;;2.48;74.80;92318.50;5080519;28;20670;-78
2024/01/01 18:51:02;;;;;;;4.50;2.45;;;;;;;2.49;75.47;92320.06;5114034;28;20036;-78
2024/01/01 18:53:28;;;;;;;7.45;3.85;;;;;;;2.46;76.73;92315.38;5096194;28;20063;-78
2024/01/01 18:55:54;;;;;;;6.50;3.50;;;;;;;2.44;79.74;92307.09;5094216;28;20040;-78
2024/01/01 18:58:20;;;;;;;3.30;1.85;;;;;;;2.42;85.39;92304.72;5100144;28;20038;-78
2024/01/01 19:00:49;;;;;;;3.63;1.95;;;;;;;2.46;89.68;92305.03;5102400;28;20587;-78
2024/01/01 19:03:15;;;;;;;2.75;1.75;;;;;;;2.45;89.85;92306.81;5089713;28;20039;-77
2024/01/01 19:05:41;;;;;;;4.93;2.55;;;;;;;2.37;92.95;92309.06;5084407;28;20088;-78
2024/01/01 19:08:07;;;;;;;4.82;2.60;;;;;;;2.26;92.21;92316.69;5111153;28;20413;-78
2024/01/01 19:10:33;;;;;;;3.88;2.20;;;;;;;2.17;92.48;92320.69;5109105;28;20062;-78
2024/01/01 19:12:59;;;;;;;4.68;2.70;;;;;;;2.11;90.84;92318.28;5081320;28;20040;-78
2024/01/01 19:15:24;;;;;;;3.20;1.90;;;;;;;2.05;91.68;92320.81;5070415;28;20024;-78
2024/01/01 19:17:50;;;;;;;2.92;1.67;;;;;;;1.99;92.45;92314.00;5067225;28;20039;-78
2024/01/01 19:20:16;;;;;;;3.30;2.00;;;;;;;1.92;91.10;92310.03;5072300;28;20044;-77
2024/01/01 19:22:41;;;;;;;2.65;1.70;;;;;;;1.85;88.67;92316.13;5099675;28;20099;-78
2024/01/01 19:25:08;;;;;;;2.92;1.83;;;;;;;1.80;88.37;92312.69;5115772;28;20119;-78
2024/01/01 19:27:34;;;;;;;3.05;1.63;;;;;;;1.77;88.99;92313.94;5104235;28;20044;-77
2024/01/01 19:29:59;;;;;;;2.60;1.50;;;;;;;1.75;89.58;92321.13;5102894;28;20031;-78
2024/01/01 19:32:29;;;;;;;2.50;1.55;;;;;;;1.73;91.38;92323.16;5114842;28;20084;-78
2024/01/01 19:34:57;;;;;;;2.85;1.40;;;;;;;1.71;92.14;92322.63;5078096;28;20036;-80
2024/01/01 19:37:24;;;;;;;2.47;1.48;;;;;;;1.67;92.72;92324.13;5099620;28;20118;-79
2024/01/01 19:39:51;;;;;;;3.47;1.80;;;;;;;1.68;91.91;92320.50;5116457;28;20036;-79
2024/01/01 19:42:16;;;;;;;3.35;2.00;;;;;;;1.67;93.66;92331.88;5066608;28;20039;-79
2024/01/01 19:44:42;;;;;;;3.63;1.90;;;;;;;1.64;94.12;92343.44;5101281;28;20065;-79
2024/01/01 19:47:10;;;;;;;2.00;1.50;;;;;;;1.63;93.99;92341.88;5087305;28;20031;-79
2024/01/01 19:49:40;;;;;;;3.08;1.95;;;;;;;1.60;96.67;92344.13;5064667;28;20051;-79
2024/01/01 19:52:06;;;;;;;3.70;2.30;;;;;;;1.56;97.75;92343.06;5096644;28;20048;-80
2024/01/01 19:54:32;;;;;;;5.72;2.20;;;;;;;1.50;100.00;92344.75;5099356;28;20039;-79
2024/01/01 19:56:57;;;;;;;3.55;1.95;;;;;;;1.48;100.00;92346.00;5050931;28;20044;-80
2024/01/01 19:59:23;;;;;;;3.47;1.75;;;;;;;1.42;100.00;92340.00;5101263;28;20062;-83
2024/01/01 20:01:49;;;;;;;2.90;1.80;;;;;;;1.38;100.00;92344.81;5101412;28;20032;-80
2024/01/01 20:04:15;;;;;;;3.80;1.80;;;;;;;1.36;100.00;92344.28;5124843;28;20477;-80
2024/01/01 20:06:44;;;;;;;3.92;2.10;;;;;;;1.34;100.00;92351.47;5125571;28;20035;-80
2024/01/01 20:09:09;;;;;;;4.05;2.60;;;;;;;1.28;100.00;92359.34;5120116;28;20027;-79
2024/01/01 20:11:35;;;;;;;9.27;4.63;;;;;;;1.24;100.00;92356.47;5125175;28;20039;-80
2024/01/01 20:14:03;;;;;;;6.07;3.17;;;;;;;1.19;100.00;92359.72;5108193;28;20024;-80
2024/01/01 20:16:28;;;;;;;6.55;3.42;;;;;;;1.20;98.65;92360.50;5107921;28;20058;-79
2024/01/01 20:18:54;;;;;;;6.28;3.42;;;;;;;1.15;97.81;92358.63;5117461;28;20024;-80
2024/01/01 20:21:25;;;;;;;6.53;3.38;;;;;;;1.12;96.42;92363.44;5125071;28;20032;-80
2024/01/01 20:23:52;;;;;;;11.32;6.05;;;;;;;1.08;94.17;92372.66;5111288;28;20036;-80
2024/01/01 20:26:19;;;;;;;5.93;3.03;;;;;;;1.06;92.91;92380.63;5128228;28;20077;-80
2024/01/01 20:28:45;;;;;;;3.30;1.95;;;;;;;1.01;91.37;92375.38;5128690;28;20042;-80
2024/01/01 20:31:11;;;;;;;3.25;1.90;;;;;;;0.98;92.80;92379.19;5111102;28;20087;-80
2024/01/01 20:33:37;;;;;;;5.47;2.25;;;;;;;0.87;92.39;92385.16;5111138;28;20054;-79
2024/01/01 20:36:04;;;;;;;6.05;2.80;;;;;;;0.86;94.17;92396.50;5074356;28;20024;-80
2024/01/01 20:38:30;;;;;;;11.32;5.25;;;;;;;0.83;94.63;92394.38;5108904;28;20040;-80
2024/01/01 20:40:55;;;;;;;9.70;4.20;;;;;;;0.83;95.25;92399.53;5109957;28;20039;-80
2024/01/01 20:43:21;;;;;;;8.98;4.00;;;;;;;0.82;96.26;92397.97;5086788;28;20032;-80
2024/01/01 20:45:47;;;;;;;6.60;3.17;;;;;;;0.81;97.62;92399.75;5103453;28;20480;-80
2024/01/01 20:48:13;;;;;;;5.10;2.65;;;;;;;0.81;97.46;92392.03;5082244;28;20040;-79
2024/01/01 20:50:42;;;;;;;5.35;2.80;;;;;;;0.80;97.01;92390.44;5098285;28;20032;-80
2024/01/01 20:53:08;;;;;;;4.40;1.90;;;;;;;0.80;98.10;92399.97;5106459;28;20172;-80
2024/01/01 20:55:34;;;;;;;3.45;1.70;;;;;;;0.77;100.00;92396.06;5104024;28;20106;-81
2024/01/01 20:58:00;;;;;;;2.60;1.50;;;;;;;0.75;100.00;92405.03;5106542;28;20109;-81
2024/01/01 21:00:25;;;;;;;3.03;1.70;;;;;;;0.76;100.00;92404.03;5125382;28;20023;-81
2024/01/01 21:02:53;;;;;;;2.17;1.45;;;;;;;0.72;100.00;92398.56;5126212;28;20039;-80
2024/01/01 21:05:22;;;;;;;2.25;1.58;;;;;;;0.71;100.00;92398.78;5107719;28;20038;-80
2024/01/01 21:07:48;;;;;;;3.40;2.00;;;;;;;0.69;100.00;92398.22;5125716;28;20582;-80
2024/01/01 21:10:14;;;;;;;3.67;2.20;;;;;;;0.67;100.00;92400.25;5090038;28;20028;-80
2024/01/01 21:12:39;;;;;;;3.90;2.17;;;;;;;0.68;98.77;92399.25;5107372;28;20058;-80
2024/01/01 21:15:06;;;;;;;9.98;2.65;;;;;;;0.66;99.12;92388.38;5107945;28;20032;-79
2024/01/01 21:17:31;;;;;;;4.55;2.35;;;;;;;0.64;100.00;92390.41;5124595;28;20078;-80
2024/01/01 21:19:57;;;;;;;4.32;2.33;;;;;;;0.62;100.00;92386.25;5123344;28;20047;-79
2024/01/01 21:22:22;;;;;;;4.25;1.67;;;;;;;0.61;100.00;92384.69;5124173;28;20093;-79
2024/01/01 21:24:50;;;;;;;2.88;1.77;;;;;;;0.63;100.00;92389.59;5107372;28;20028;-79
2024/01/01 21:27:17;;;;;;;2.22;1.25;;;;;;;0.62;100.00;92375.94;5126336;28;20044;-79
2024/01/01 21:29:43;;;;;;;2.30;1.38;;;;;;;0.59;100.00;92360.94;5124473;28;20024;-80
2024/01/01 21:32:09;;;;;;;2.85;1.50;;;;;;;0.56;100.00;92358.03;5125114;28;20040;-79
2024/01/01 21:34:35;;;;;;;1.23;1.13;;;;;;;0.58;100.00;92354.22;5085546;28;20055;-80
2024/01/01 21:37:02;;;;;;;2.28;1.30;;;;;;;0.55;100.00;92364.97;5102674;28;20046;-79
2024/01/01 21:39:27;;;;;;;2.42;1.42;;;;;;;0.53;100.00;92371.38;5115963;28;20055;-79
2024/01/01 21:41:53;;;;;;;3.15;1.67;;;;;;;0.48;100.00;92369.47;5105021;28;20044;-79
2024/01/01 21:44:25;;;;;;;2.35;1.30;;;;;;;0.45;100.00;92377.66;5104884;28;20042;-80
2024/01/01 21:46:52;;;;;;;3.10;1.60;;;;;;;0.43;100.00;92366.81;5123996;28;20052;-79
2024/01/01 21:49:28;;;;;;;1.80;1.38;;;;;;;0.40;100.00;92368.00;5126924;28;20498;-79
2024/01/01 21:51:53;;;;;;;2.50;1.70;;;;;;;0.43;100.00;92366.00;5125417;28;20040;-79
2024/01/01 21:54:19;;;;;;;3.65;1.50;;;;;;;0.43;100.00;92368.56;5126817;28;20036;-79
2024/01/01 21:56:44;;;;;;;1.77;1.35;;;;;;;0.41;100.00;92367.03;5106985;28;20348;-79
2024/01/01 21:59:10;;;;;;;2.30;1.40;;;;;;;0.40;100.00;92351.78;5124868;28;20043;-79
2024/01/01 22:01:36;;;;;;;1.63;1.40;;;;;;;0.40;100.00;92362.09;5122478;28;20031;-79
2024/01/01 22:04:07;;;;;;;2.10;1.50;;;;;;;0.36;100.00;92361.78;5106410;28;20033;-79
2024/01/01 22:06:37;;;;;;;3.78;1.50;;;;;;;0.36;100.00;92353.25;5122873;28;20509;-79
2024/01/01 22:09:15;;;;;;;2.25;1.40;;;;;;;0.35;100.00;92359.41;5105562;28;20046;-79
2024/01/01 22:11:41;;;;;;;2.13;1.50;;;;;;;0.33;100.00;92361.44;5104931;28;20036;-79
